createdAt,value
2022-08-27T00:05:51.434Z,1016.05
2022-08-27T00:34:50.633Z,1015.87
2022-08-27T01:03:53.684Z,1015.69
2022-08-27T01:32:55.714Z,1015.7
2022-08-27T02:01:12.742Z,1015.57
2022-08-27T02:30:01.386Z,1015.34
2022-08-27T02:59:30.569Z,1015.42
2022-08-27T03:28:34.104Z,1015.33
2022-08-27T03:57:30.408Z,1015.39
2022-08-27T04:26:30.655Z,1015.37
2022-08-27T04:55:39.425Z,1015.58
2022-08-27T05:24:10.307Z,1015.64
2022-08-27T05:52:52.226Z,1015.62
2022-08-27T06:22:09.709Z,1015.63
2022-08-27T06:50:28.192Z,1015.67
2022-08-27T07:18:42.833Z,1015.79
2022-08-27T07:47:36.524Z,1015.97
2022-08-27T08:16:55.554Z,1015.99
2022-08-27T08:45:56.784Z,1016.09
2022-08-27T09:14:54.290Z,1016.25
2022-08-27T09:43:33.852Z,1016.25
2022-08-27T10:12:28.032Z,1016.34
2022-08-27T10:41:30.781Z,1016.35
2022-08-27T11:10:39.426Z,1016.43
2022-08-27T11:39:30.860Z,1016.31
2022-08-27T12:08:27.134Z,1016.05
2022-08-27T12:37:08.407Z,1015.86
2022-08-27T13:05:20.281Z,1015.69
2022-08-27T13:33:36.696Z,1015.69
2022-08-27T14:02:03.529Z,1015.75
2022-08-27T14:30:30.693Z,1015.56
2022-08-27T14:59:32.436Z,1015.33
2022-08-27T15:28:26.749Z,1015.47
2022-08-27T15:57:28.805Z,1015.47
2022-08-27T16:26:32.293Z,1015.42
2022-08-27T16:55:34.967Z,1015.38
2022-08-27T17:24:35.663Z,1015.49
2022-08-27T17:53:39.881Z,1015.6
2022-08-27T18:22:49.362Z,1015.79
2022-08-27T18:50:53.738Z,1015.78
2022-08-27T19:19:12.453Z,1016.05
2022-08-27T19:47:30.692Z,1016.29
2022-08-27T20:16:27.121Z,1016.56
2022-08-27T20:45:12.986Z,1016.66
2022-08-27T21:13:57.156Z,1016.68
2022-08-27T21:42:14.295Z,1016.77
2022-08-27T22:10:34.374Z,1016.87
2022-08-27T22:38:51.450Z,1016.84
2022-08-27T23:07:09.667Z,1016.83
2022-08-27T23:35:25.663Z,1016.92
